X  Sluiten METAR luchtvaart weer gegevens      EHAM Amsterdam Airport Schiphol
Temperatuur
16°C Temperatuur
10°C Dauwpunt
68% Vochtigheid



Wind
21 KM/U
13 MPH
6 M/S
11 KTS



300°
WNW
Huidig weer

Wat bewolking Wat bewolking
Luchtdruk 1019.92 (hPa) - 30.12 (inHg)
Zicht 6.2 (mijl) - 10 (km)
Vliegveld
Vliegveld code EHAM

Locatie : Amsterdam Airport Schiphol
Afstand: 40 (km)

Metar:
EHAM 021555Z 30011KT 280V350 9999 FEW028 16/10 Q1020 NOSIG

Tijd: 02-10-2022 17:55 CEST